createdAt,value
2018-07-11T00:00:17.421Z,16.40
2018-07-11T00:02:45.888Z,16.70
2018-07-11T00:05:14.246Z,16.50
2018-07-11T00:07:42.587Z,16.40
2018-07-11T00:15:07.270Z,16.30
2018-07-11T00:17:35.637Z,16.20
2018-07-11T00:20:04.069Z,16.20
2018-07-11T00:22:32.424Z,16.10
2018-07-11T00:25:00.832Z,16.00
2018-07-11T00:27:29.155Z,16.00
2018-07-11T00:29:57.513Z,16.00
2018-07-11T00:32:27.190Z,16.00
2018-07-11T00:39:51.809Z,16.00
2018-07-11T00:42:20.192Z,16.00
2018-07-11T00:44:49.625Z,16.30
2018-07-11T00:47:18.147Z,16.10
2018-07-11T00:49:46.520Z,16.00
2018-07-11T00:52:14.916Z,15.90
2018-07-11T00:54:43.374Z,15.90
2018-07-11T00:57:11.825Z,15.90
2018-07-11T01:02:09.814Z,15.80
2018-07-11T01:04:38.222Z,15.80
2018-07-11T01:07:09.185Z,15.80
2018-07-11T01:09:47.892Z,15.80
2018-07-11T01:12:16.289Z,15.80
2018-07-11T01:14:47.773Z,16.10
2018-07-11T01:17:34.428Z,15.90
2018-07-11T01:20:02.894Z,15.80
2018-07-11T01:22:31.179Z,16.00
2018-07-11T01:25:02.619Z,15.80
2018-07-11T01:27:35.255Z,15.70
2018-07-11T01:32:31.783Z,15.60
2018-07-11T01:35:00.133Z,15.50
2018-07-11T01:37:28.478Z,15.50
2018-07-11T01:42:25.395Z,15.50
2018-07-11T01:44:53.802Z,15.50
2018-07-11T01:47:22.175Z,15.40
2018-07-11T01:49:50.498Z,15.40
2018-07-11T01:57:34.084Z,15.50
2018-07-11T02:00:02.505Z,15.40
2018-07-11T02:02:30.857Z,15.30
2018-07-11T02:04:59.208Z,15.30
2018-07-11T02:07:27.640Z,15.30
2018-07-11T02:09:56.970Z,15.30
2018-07-11T02:17:38.489Z,15.00
2018-07-11T02:25:09.863Z,15.00
2018-07-11T02:30:06.769Z,14.90
2018-07-11T02:32:35.948Z,14.80
2018-07-11T02:35:05.260Z,14.80
2018-07-11T02:37:33.596Z,14.80
2018-07-11T02:40:01.947Z,14.90
2018-07-11T02:42:30.276Z,15.20
2018-07-11T02:47:44.177Z,14.90
2018-07-11T02:52:41.900Z,14.80
2018-07-11T03:00:06.586Z,14.90
2018-07-11T03:02:36.217Z,15.00
2018-07-11T03:05:04.605Z,15.30
2018-07-11T03:07:32.895Z,15.30
2018-07-11T03:12:31.406Z,15.50
2018-07-11T03:24:52.049Z,15.80
2018-07-11T03:27:20.444Z,15.60
2018-07-11T03:29:48.752Z,15.50
2018-07-11T03:32:17.077Z,15.70
2018-07-11T03:34:45.458Z,15.60
2018-07-11T03:37:14.856Z,15.50
2018-07-11T03:39:43.392Z,15.40
2018-07-11T03:42:11.840Z,15.70
2018-07-11T03:44:40.789Z,15.90
2018-07-11T03:47:09.314Z,15.70
2018-07-11T03:49:37.665Z,15.90
2018-07-11T03:52:06.330Z,15.70
2018-07-11T03:54:34.716Z,15.60
2018-07-11T03:57:04.237Z,15.60
2018-07-11T03:59:32.546Z,15.50
2018-07-11T04:04:29.839Z,15.50
2018-07-11T04:06:58.164Z,15.50
2018-07-11T04:09:27.517Z,15.60
2018-07-11T04:11:55.846Z,15.60
2018-07-11T04:14:24.242Z,15.70
2018-07-11T04:16:53.499Z,15.70
2018-07-11T04:19:21.822Z,15.70
2018-07-11T04:21:50.170Z,15.80
2018-07-11T04:24:18.525Z,15.90
2018-07-11T04:26:46.873Z,15.90
2018-07-11T04:29:15.556Z,15.90
2018-07-11T04:34:13.601Z,16.10
2018-07-11T04:36:41.947Z,16.10
2018-07-11T04:39:10.325Z,16.50
2018-07-11T04:44:07.081Z,16.50
2018-07-11T04:46:35.605Z,16.50
2018-07-11T04:49:03.909Z,16.40
2018-07-11T04:51:32.496Z,16.50
2018-07-11T04:56:29.084Z,16.50
2018-07-11T04:58:58.559Z,16.60
2018-07-11T05:03:55.291Z,16.60
2018-07-11T05:06:26.564Z,16.70
2018-07-11T05:11:23.037Z,16.70
2018-07-11T05:16:20.905Z,16.70
2018-07-11T05:18:49.122Z,16.70
2018-07-11T05:21:17.527Z,16.80
2018-07-11T05:23:45.920Z,16.80
2018-07-11T05:26:14.259Z,16.90
2018-07-11T05:28:42.592Z,17.00
2018-07-11T05:31:14.456Z,17.00
2018-07-11T05:38:39.168Z,17.10
2018-07-11T05:41:08.889Z,17.20
2018-07-11T05:46:05.429Z,17.60
2018-07-11T05:48:33.762Z,17.50
2018-07-11T05:51:02.254Z,17.80
2018-07-11T05:53:30.637Z,17.70
2018-07-11T05:55:59.030Z,17.70
2018-07-11T05:58:27.381Z,17.60
2018-07-11T06:00:55.813Z,17.70
2018-07-11T06:03:24.190Z,18.20
2018-07-11T06:05:52.557Z,18.10
2018-07-11T06:08:20.959Z,18.10
2018-07-11T06:15:45.585Z,18.30
2018-07-11T06:20:42.032Z,18.40
2018-07-11T06:23:12.909Z,18.50
2018-07-11T06:25:42.048Z,18.90
2018-07-11T06:28:10.413Z,18.70
2018-07-11T06:33:06.939Z,18.60
2018-07-11T06:35:35.293Z,18.70
2018-07-11T06:40:32.600Z,18.90
2018-07-11T06:43:02.219Z,19.10
2018-07-11T06:45:30.552Z,19.10
2018-07-11T06:50:27.894Z,19.50
2018-07-11T06:52:56.312Z,19.40
2018-07-11T06:55:25.864Z,19.60
2018-07-11T06:57:54.192Z,20.10
2018-07-11T07:12:46.047Z,19.90
2018-07-11T07:15:30.600Z,19.70
2018-07-11T07:17:58.317Z,19.70
2018-07-11T07:22:57.564Z,19.60
2018-07-11T07:25:28.674Z,19.50
2018-07-11T07:30:29.168Z,19.60
2018-07-11T07:32:59.788Z,19.60
2018-07-11T07:35:31.421Z,19.60
2018-07-11T07:38:00.627Z,19.60
2018-07-11T07:40:30.489Z,19.60
2018-07-11T07:42:59.292Z,19.60
2018-07-11T07:45:27.746Z,19.60
2018-07-11T07:47:58.945Z,20.00
2018-07-11T07:53:01.807Z,20.00
2018-07-11T07:55:31.628Z,19.80
2018-07-11T07:58:01.317Z,19.80
2018-07-11T08:00:31.941Z,19.70
2018-07-11T08:03:03.966Z,19.70
2018-07-11T08:08:02.295Z,19.90
2018-07-11T08:10:31.865Z,19.90
2018-07-11T08:15:31.210Z,20.10
2018-07-11T08:20:32.390Z,20.00
2018-07-11T08:23:47.894Z,20.00
2018-07-11T08:26:52.634Z,20.10
2018-07-11T08:30:01.053Z,20.40
2018-07-11T08:33:07.073Z,20.90
2018-07-11T08:36:12.964Z,20.90
2018-07-11T08:39:24.589Z,20.90
2018-07-11T08:45:19.255Z,20.70
2018-07-11T08:48:29.272Z,20.60
2018-07-11T08:54:10.017Z,20.80
2018-07-11T08:57:05.463Z,20.90
2018-07-11T09:02:43.276Z,20.90
2018-07-11T09:05:48.304Z,21.10
2018-07-11T09:08:37.004Z,21.40
2018-07-11T09:11:28.476Z,21.50
2018-07-11T09:14:47.599Z,21.90
2018-07-11T09:17:52.439Z,21.60
2018-07-11T09:21:11.197Z,21.30
2018-07-11T09:24:22.749Z,21.20
2018-07-11T09:26:52.380Z,21.30
2018-07-11T09:29:22.211Z,21.50
2018-07-11T09:31:52.449Z,21.70
2018-07-11T09:34:20.980Z,22.00
2018-07-11T09:36:49.437Z,22.00
2018-07-11T09:39:28.839Z,21.90
2018-07-11T09:41:57.360Z,21.90
2018-07-11T09:44:27.171Z,22.00
2018-07-11T09:46:57.135Z,21.90
2018-07-11T09:49:27.141Z,22.00
2018-07-11T09:54:24.169Z,22.50
2018-07-11T09:56:52.758Z,22.60
2018-07-11T09:59:22.489Z,22.80
2018-07-11T10:01:50.894Z,23.10
2018-07-11T10:06:48.503Z,22.60
2018-07-11T10:09:17.821Z,22.40
2018-07-11T10:11:46.147Z,22.40
2018-07-11T10:14:14.489Z,22.60
2018-07-11T10:16:43.784Z,22.80
2018-07-11T10:19:12.155Z,22.80
2018-07-11T10:21:40.681Z,23.10
2018-07-11T10:26:37.097Z,23.20
2018-07-11T10:29:09.251Z,23.20
2018-07-11T10:31:37.663Z,23.10
2018-07-11T10:34:06.152Z,22.90
2018-07-11T10:39:02.820Z,22.80
2018-07-11T10:41:32.011Z,22.80
2018-07-11T10:46:28.469Z,22.90
2018-07-11T10:53:53.927Z,22.70
2018-07-11T10:58:50.616Z,22.60
2018-07-11T11:01:20.027Z,22.60
2018-07-11T11:03:48.398Z,22.90
2018-07-11T11:06:16.803Z,23.10
2018-07-11T11:08:45.299Z,23.70
2018-07-11T11:11:13.622Z,23.70
2018-07-11T11:13:42.005Z,23.60
2018-07-11T11:16:10.410Z,23.40
2018-07-11T11:18:38.928Z,23.20
2018-07-11T11:21:07.331Z,23.20
2018-07-11T11:26:08.086Z,23.60
2018-07-11T11:28:36.424Z,23.80
2018-07-11T11:31:04.840Z,23.90
2018-07-11T11:36:01.434Z,24.20
2018-07-11T11:38:29.973Z,24.10
2018-07-11T11:40:58.325Z,23.90
2018-07-11T11:43:26.742Z,23.50
2018-07-11T11:48:23.317Z,23.10
2018-07-11T11:53:19.788Z,23.00
2018-07-11T11:55:48.158Z,22.90
2018-07-11T11:58:19.265Z,22.80
2018-07-11T12:03:15.757Z,22.90
2018-07-11T12:05:44.112Z,23.00
2018-07-11T12:08:12.556Z,23.00
2018-07-11T12:10:41.819Z,22.90
2018-07-11T12:13:10.144Z,22.80
2018-07-11T12:18:06.628Z,22.80
2018-07-11T12:20:36.508Z,22.70
2018-07-11T12:23:04.856Z,22.80
2018-07-11T12:25:33.214Z,22.70
2018-07-11T12:28:01.630Z,23.00
2018-07-11T12:30:31.622Z,22.90
2018-07-11T12:33:00.029Z,22.80
2018-07-11T12:35:29.659Z,22.80
2018-07-11T12:40:26.704Z,22.50
2018-07-11T12:42:55.198Z,22.50
2018-07-11T12:48:10.185Z,22.40
2018-07-11T12:53:09.838Z,22.30
2018-07-11T12:55:39.220Z,22.20
2018-07-11T13:00:36.681Z,22.20
2018-07-11T13:03:05.122Z,22.20
2018-07-11T13:05:33.531Z,22.20
2018-07-11T13:08:01.934Z,22.10
2018-07-11T13:12:59.338Z,22.40
2018-07-11T13:15:28.841Z,22.20
2018-07-11T13:17:57.221Z,22.00
2018-07-11T13:20:25.717Z,21.90
2018-07-11T13:22:54.053Z,21.90
2018-07-11T13:27:51.667Z,22.00
2018-07-11T13:30:20.447Z,21.90
2018-07-11T13:32:48.802Z,22.00
2018-07-11T13:40:16.982Z,21.90
2018-07-11T13:42:46.329Z,21.90
2018-07-11T13:50:13.432Z,21.70
2018-07-11T13:57:39.094Z,21.80
2018-07-11T14:00:07.690Z,21.80
2018-07-11T14:02:37.209Z,21.80
2018-07-11T14:05:06.581Z,21.90
2018-07-11T14:07:35.022Z,21.90
2018-07-11T14:10:03.385Z,21.90
2018-07-11T14:12:31.785Z,21.80
2018-07-11T14:17:28.212Z,21.90
2018-07-11T14:19:56.673Z,21.90
2018-07-11T14:22:25.002Z,21.90
2018-07-11T14:24:53.476Z,22.00
2018-07-11T14:32:19.803Z,22.60
2018-07-11T14:34:48.235Z,22.90
2018-07-11T14:37:18.106Z,24.40
2018-07-11T14:39:46.529Z,28.10
2018-07-11T14:42:16.370Z,29.60
2018-07-11T14:44:46.428Z,28.80
2018-07-11T14:47:32.642Z,27.50
2018-07-11T14:54:58.224Z,25.20
2018-07-11T14:57:27.205Z,24.90
2018-07-11T14:59:57.589Z,24.50
2018-07-11T15:02:26.155Z,24.20
2018-07-11T15:04:57.742Z,24.20
2018-07-11T15:07:26.207Z,24.60
2018-07-11T15:09:56.080Z,24.30
2018-07-11T15:12:25.704Z,24.20
2018-07-11T15:14:54.033Z,24.20
2018-07-11T15:19:50.720Z,24.20
2018-07-11T15:24:48.857Z,24.20
2018-07-11T15:27:17.234Z,24.20
2018-07-11T15:29:47.954Z,24.50
2018-07-11T15:32:16.394Z,24.40
2018-07-11T15:34:44.758Z,24.70
2018-07-11T15:37:13.132Z,24.90
2018-07-11T15:42:14.228Z,28.20
2018-07-11T15:44:44.075Z,28.40
2018-07-11T15:47:15.975Z,28.30
2018-07-11T15:49:44.075Z,27.70
2018-07-11T15:52:12.459Z,27.20
2018-07-11T15:54:41.768Z,26.80
2018-07-11T15:57:10.155Z,26.50
2018-07-11T16:00:06.155Z,26.30
2018-07-11T16:02:38.705Z,26.00
2018-07-11T16:07:36.857Z,26.00
2018-07-11T16:10:05.224Z,25.80
2018-07-11T16:12:34.411Z,25.60
2018-07-11T16:15:02.808Z,25.70
2018-07-11T16:17:32.385Z,25.50
2018-07-11T16:20:00.717Z,25.20
2018-07-11T16:22:29.116Z,25.00
2018-07-11T16:27:25.748Z,24.90
2018-07-11T16:29:55.186Z,24.90
2018-07-11T16:34:52.828Z,24.90
2018-07-11T16:37:21.689Z,24.90
2018-07-11T16:39:50.066Z,24.90
2018-07-11T16:42:19.089Z,24.70
2018-07-11T16:44:48.471Z,24.60
2018-07-11T16:47:16.878Z,24.40
2018-07-11T16:49:45.229Z,24.60
2018-07-11T16:52:13.625Z,24.40
2018-07-11T16:54:43.416Z,24.60
2018-07-11T16:57:13.716Z,24.30
2018-07-11T16:59:50.551Z,24.20
2018-07-11T17:02:26.285Z,24.10
2018-07-11T17:04:56.300Z,24.10
2018-07-11T17:07:26.284Z,24.50
2018-07-11T17:12:24.602Z,24.80
2018-07-11T17:14:53.658Z,25.00
2018-07-11T17:20:10.953Z,25.30
2018-07-11T17:22:56.414Z,25.30
2018-07-11T17:30:26.714Z,24.70
2018-07-11T17:32:55.079Z,24.50
2018-07-11T17:35:23.427Z,24.40
2018-07-11T17:38:02.751Z,24.30
2018-07-11T17:40:39.381Z,24.20
2018-07-11T17:45:38.186Z,24.30
2018-07-11T17:48:28.825Z,24.30
2018-07-11T17:51:02.285Z,24.30
2018-07-11T17:53:43.715Z,24.30
2018-07-11T17:58:58.252Z,24.60
2018-07-11T18:04:26.161Z,24.40
2018-07-11T18:07:19.288Z,24.20
2018-07-11T18:10:07.418Z,24.10
2018-07-11T18:12:58.487Z,24.30
2018-07-11T18:15:36.862Z,24.10
2018-07-11T18:18:55.427Z,24.50
2018-07-11T18:24:37.867Z,24.60
2018-07-11T18:27:35.002Z,24.90
2018-07-11T18:30:29.328Z,24.50
2018-07-11T18:33:24.224Z,24.40
2018-07-11T18:36:02.849Z,24.40
2018-07-11T18:41:09.249Z,24.30
2018-07-11T18:44:01.660Z,24.20
2018-07-11T18:49:20.580Z,23.90
2018-07-11T18:52:17.697Z,23.70
2018-07-11T18:55:40.194Z,23.50
2018-07-11T18:58:25.511Z,23.30
2018-07-11T19:04:25.158Z,23.40
2018-07-11T19:09:43.991Z,22.80
2018-07-11T19:12:36.945Z,22.70
2018-07-11T19:15:17.769Z,22.70
2018-07-11T19:20:39.142Z,22.80
2018-07-11T19:23:34.114Z,22.70
2018-07-11T19:26:22.131Z,22.50
2018-07-11T19:29:21.286Z,22.40
2018-07-11T19:32:14.146Z,22.30
2018-07-11T19:35:16.200Z,22.20
2018-07-11T19:38:06.619Z,22.10
2018-07-11T19:46:47.733Z,22.00
2018-07-11T19:49:38.459Z,21.80
2018-07-11T19:55:43.727Z,21.70
2018-07-11T20:00:40.285Z,21.50
2018-07-11T20:05:36.764Z,21.60
2018-07-11T20:08:05.217Z,21.80
2018-07-11T20:15:30.666Z,21.30
2018-07-11T20:17:59.023Z,21.20
2018-07-11T20:22:56.888Z,21.20
2018-07-11T20:25:26.046Z,21.10
2018-07-11T20:27:55.304Z,21.00
2018-07-11T20:32:51.735Z,20.90
2018-07-11T20:35:21.515Z,20.90
2018-07-11T20:37:49.914Z,20.80
2018-07-11T20:40:19.169Z,21.00
2018-07-11T20:42:47.623Z,20.90
2018-07-11T20:45:16.524Z,20.80
2018-07-11T20:50:13.152Z,20.70
2018-07-11T20:52:41.520Z,20.60
2018-07-11T20:55:09.888Z,20.60
2018-07-11T20:57:38.313Z,20.80
2018-07-11T21:03:53.261Z,20.40
2018-07-11T21:06:52.895Z,20.30
2018-07-11T21:10:12.749Z,20.00
2018-07-11T21:13:23.101Z,20.00
2018-07-11T21:16:22.371Z,19.90
2018-07-11T21:21:36.658Z,19.80
2018-07-11T21:24:06.079Z,19.80
2018-07-11T21:31:30.992Z,19.80
2018-07-11T21:36:32.515Z,19.70
2018-07-11T21:39:01.054Z,19.70
2018-07-11T21:43:57.684Z,19.60
2018-07-11T21:46:28.113Z,19.50
2018-07-11T21:48:56.425Z,19.50
2018-07-11T21:51:26.668Z,19.40
2018-07-11T21:53:54.999Z,19.40
2018-07-11T21:56:23.444Z,19.40
2018-07-11T21:58:51.968Z,19.30
2018-07-11T22:03:49.250Z,19.30
2018-07-11T22:08:48.770Z,19.10
2018-07-11T22:13:45.546Z,19.00
2018-07-11T22:18:45.897Z,18.90
2018-07-11T22:26:09.776Z,19.00
2018-07-11T22:28:40.013Z,18.90
2018-07-11T22:31:07.334Z,18.80
2018-07-11T22:33:34.645Z,18.70
2018-07-11T22:36:02.039Z,18.70
2018-07-11T22:40:56.784Z,18.60
2018-07-11T22:45:54.582Z,18.50
2018-07-11T22:48:21.889Z,18.50
2018-07-11T22:50:49.207Z,18.50
2018-07-11T22:53:16.494Z,18.50
2018-07-11T22:55:43.833Z,18.40
2018-07-11T22:58:11.138Z,18.40
2018-07-11T23:00:38.806Z,18.70
2018-07-11T23:03:06.078Z,18.80
2018-07-11T23:05:33.438Z,18.80
2018-07-11T23:08:00.792Z,18.60
2018-07-11T23:20:20.996Z,18.30
2018-07-11T23:22:50.211Z,18.30
2018-07-11T23:27:45.222Z,18.20
2018-07-11T23:37:35.309Z,18.20
2018-07-11T23:40:02.630Z,18.20
2018-07-11T23:42:32.566Z,18.20
2018-07-11T23:44:59.848Z,18.20
2018-07-11T23:47:27.144Z,18.10
2018-07-11T23:52:25.657Z,18.10
2018-07-11T23:54:54.518Z,18.10
2018-07-11T23:57:23.145Z,18.00
2018-07-11T23:59:50.512Z,18.00
